Time;durP1;ratioP1;P1;durP2;ratioP2;P2;SDS_P1;SDS_P2;PMS_P1;PMS_P2;Temp;Humidity;BMP_temperature;BMP_pressure;BME280_temperature;BME280_humidity;BME280_pressure;Samples;Min_cycle;Max_cycle;Signal;HPM_P1;HPM_P2
2022/09/07 00:03:54;;;;;;;21.50;16.27;;;19.30;99.90;;;;;;6141850;23;20033;-86
2022/09/07 00:06:20;;;;;;;22.10;16.52;;;19.30;99.90;;;;;;6118657;23;20286;-87
2022/09/07 00:08:46;;;;;;;21.10;17.15;;;19.30;99.90;;;;;;6099563;23;20167;-87
2022/09/07 00:11:15;;;;;;;18.90;15.40;;;19.20;99.90;;;;;;6125413;23;20474;-87
2022/09/07 00:13:43;;;;;;;20.88;17.02;;;19.20;99.90;;;;;;6126067;23;20010;-86
2022/09/07 02:30:27;;;;;;;5.78;2.80;;;17.50;99.90;;;;;;6142155;23;20133;-84
2022/09/07 03:16:56;;;;;;;7.45;2.30;;;17.70;99.90;;;;;;6151575;23;20017;-84
2022/09/07 03:19:21;;;;;;;7.78;2.38;;;17.70;99.90;;;;;;6129205;23;20432;-85
2022/09/07 03:21:47;;;;;;;5.88;2.00;;;17.70;99.90;;;;;;6129801;23;20081;-84
2022/09/07 03:24:13;;;;;;;5.55;2.30;;;17.70;99.90;;;;;;6153166;23;20025;-83
2022/09/07 03:26:47;;;;;;;12.55;3.38;;;17.70;99.90;;;;;;6130020;23;20014;-84
2022/09/07 03:29:14;;;;;;;5.53;2.65;;;17.70;99.90;;;;;;6127957;23;20029;-84
2022/09/07 04:30:38;;;;;;;6.40;3.40;;;17.50;99.90;;;;;;6137232;23;20159;31
2022/09/07 04:33:04;;;;;;;8.50;3.33;;;17.50;99.90;;;;;;6146461;23;20427;-88
2022/09/07 04:35:29;;;;;;;5.22;2.85;;;17.50;99.90;;;;;;6181222;23;20072;-88
2022/09/07 04:37:55;;;;;;;7.13;3.10;;;17.50;99.90;;;;;;6155859;23;20009;-89
2022/09/07 04:40:21;;;;;;;6.20;3.20;;;17.50;99.90;;;;;;6185141;23;20041;-89
2022/09/07 04:42:46;;;;;;;5.40;3.28;;;17.50;99.90;;;;;;6181637;23;20020;-88
2022/09/07 04:45:12;;;;;;;6.25;3.10;;;17.50;99.90;;;;;;6134259;23;20013;-88
2022/09/07 07:31:58;;;;;;;11.32;8.98;;;18.40;99.90;;;;;;6147807;23;20112;-83
2022/09/07 07:34:42;;;;;;;13.98;12.57;;;18.40;99.90;;;;;;6125492;23;20017;-84
2022/09/07 07:37:08;;;;;;;14.05;12.60;;;18.40;99.90;;;;;;6128833;23;20083;-84
2022/09/07 07:39:34;;;;;;;15.52;13.93;;;18.40;99.90;;;;;;6155251;23;20014;-84
2022/09/07 07:41:59;;;;;;;14.55;13.05;;;18.50;99.90;;;;;;6178285;23;20463;-84
2022/09/07 07:44:25;;;;;;;14.50;12.95;;;18.60;99.90;;;;;;6128499;23;20072;-86
2022/09/07 07:46:51;;;;;;;17.75;14.30;;;18.70;99.90;;;;;;6154953;23;20052;-86
2022/09/07 07:49:17;;;;;;;17.90;14.45;;;18.80;99.90;;;;;;6154528;23;20025;-86
2022/09/07 07:51:42;;;;;;;17.02;15.18;;;18.80;99.90;;;;;;6132155;23;20462;-86
2022/09/07 07:54:08;;;;;;;15.60;14.00;;;18.90;99.90;;;;;;6154950;23;20020;-86
2022/09/07 07:56:34;;;;;;;18.17;14.93;;;18.90;99.90;;;;;;6131028;23;20090;-87
2022/09/07 07:59:00;;;;;;;17.42;15.45;;;18.90;99.90;;;;;;6159130;23;20335;-86
2022/09/07 08:01:26;;;;;;;17.95;14.82;;;19.00;99.90;;;;;;6157272;23;20068;-85
2022/09/07 08:03:52;;;;;;;19.30;15.25;;;19.20;99.90;;;;;;6161398;23;20021;-85
2022/09/07 08:06:20;;;;;;;17.92;13.93;;;19.30;99.90;;;;;;6135825;23;20024;-85
2022/09/07 08:08:46;;;;;;;16.90;14.25;;;19.40;99.90;;;;;;6163080;23;20028;-85
2022/09/07 08:11:19;;;;;;;15.05;13.45;;;19.50;99.90;;;;;;6135918;23;20331;-85
2022/09/07 08:13:48;;;;;;;17.80;13.85;;;19.50;99.90;;;;;;6161674;23;20013;-85
2022/09/07 08:16:15;;;;;;;19.75;14.27;;;19.50;99.90;;;;;;6136436;23;20074;-84
2022/09/07 08:18:40;;;;;;;16.05;14.35;;;19.60;99.90;;;;;;6096777;23;20018;-85
2022/09/07 08:21:13;;;;;;;18.90;14.43;;;19.70;99.90;;;;;;6130730;23;20088;-85
2022/09/07 08:23:40;;;;;;;17.00;13.63;;;19.70;99.90;;;;;;6135568;23;20025;-84
2022/09/07 08:26:06;;;;;;;14.45;12.90;;;19.70;99.90;;;;;;6134419;23;20029;-84
2022/09/07 08:28:36;;;;;;;14.80;12.95;;;19.80;99.90;;;;;;6159572;23;20347;-85
2022/09/07 08:31:10;;;;;;;14.60;12.32;;;19.90;99.90;;;;;;6186053;23;20466;-85
2022/09/07 08:33:37;;;;;;;12.80;11.50;;;20.00;99.90;;;;;;6160558;23;20041;-85
2022/09/07 08:36:10;;;;;;;13.20;11.20;;;20.10;99.90;;;;;;6159590;23;20017;-85
2022/09/07 08:38:37;;;;;;;12.57;10.52;;;20.20;99.90;;;;;;6160582;23;20017;-86
2022/09/07 08:41:35;;;;;;;13.80;12.20;;;20.30;99.90;;;;;;6159564;23;20029;-86
2022/09/07 08:44:23;;;;;;;13.70;10.10;;;20.40;99.90;;;;;;6134472;23;20391;-86
2022/09/07 09:02:21;;;;;;;8.82;7.78;;;21.10;99.90;;;;;;6155222;23;20029;-87
2022/09/07 09:04:47;;;;;;;6.82;5.85;;;21.20;99.90;;;;;;6161547;23;20027;-87
2022/09/07 09:07:22;;;;;;;6.30;5.60;;;21.10;99.90;;;;;;6163410;23;20024;-88
2022/09/07 09:09:51;;;;;;;6.07;5.45;;;21.10;99.90;;;;;;6109734;23;19998;-88
2022/09/07 09:12:22;;;;;;;6.60;5.00;;;21.00;99.90;;;;;;6135150;23;20032;-88
2022/09/07 09:14:57;;;;;;;7.63;4.43;;;21.10;99.90;;;;;;6135922;23;20036;-88
2022/09/07 09:17:45;;;;;;;6.82;3.65;;;21.20;99.90;;;;;;6144909;23;20025;-89
2022/09/07 09:20:13;;;;;;;5.43;3.72;;;21.20;99.90;;;;;;6144270;23;20057;-90
2022/09/07 09:22:39;;;;;;;4.97;3.97;;;21.20;99.90;;;;;;6169789;23;20024;-89
2022/09/07 09:25:21;;;;;;;4.45;3.33;;;21.30;99.90;;;;;;6166994;23;20037;-89
2022/09/07 09:27:48;;;;;;;6.68;3.35;;;21.50;99.90;;;;;;6169878;23;20517;-88
2022/09/07 09:30:18;;;;;;;4.65;3.05;;;21.60;99.90;;;;;;6167500;23;20017;-88
2022/09/07 10:12:34;;;;;;;3.30;1.20;;;22.90;99.90;;;;;;6145211;23;20033;-87
2022/09/07 10:15:25;;;;;;;3.50;1.50;;;23.00;99.90;;;;;;6187009;23;20067;-87
2022/09/07 13:01:58;;;;;;;4.00;2.50;;;24.80;99.90;;;;;;6136725;23;20425;31
2022/09/07 13:04:55;;;;;;;5.25;2.80;;;24.50;99.90;;;;;;6125874;23;20010;-91
2022/09/07 13:07:44;;;;;;;3.83;2.67;;;24.20;99.90;;;;;;6098886;23;20029;-91
2022/09/07 13:10:30;;;;;;;4.90;2.90;;;24.10;99.90;;;;;;6075254;23;20025;-91
2022/09/07 13:13:14;;;;;;;6.47;2.78;;;24.20;99.90;;;;;;6127785;23;20064;-92
2022/09/07 13:15:49;;;;;;;3.67;2.42;;;24.30;99.90;;;;;;6127999;23;20014;-91
2022/09/07 13:56:13;;;;;;;4.90;2.97;;;24.70;99.90;;;;;;6150283;23;20467;-86
2022/09/07 13:58:51;;;;;;;4.07;2.20;;;24.50;99.90;;;;;;6138380;23;20018;-85
2022/09/07 14:01:19;;;;;;;4.75;3.33;;;24.40;99.90;;;;;;6163449;23;20363;-86
2022/09/07 15:02:16;;;;;;;5.07;1.63;;;24.70;99.90;;;;;;6136273;23;20424;31
2022/09/07 15:04:43;;;;;;;3.55;1.42;;;24.70;99.30;;;;;;6146275;23;20103;-90
2022/09/07 15:07:33;;;;;;;3.38;1.30;;;24.60;99.30;;;;;;6165053;23;20517;-88
2022/09/07 15:10:24;;;;;;;4.40;1.60;;;24.60;98.90;;;;;;6161202;23;20022;-90
2022/09/07 15:12:53;;;;;;;4.15;1.70;;;24.50;98.70;;;;;;6160829;23;20043;-88
2022/09/07 15:15:25;;;;;;;4.70;1.70;;;24.50;98.60;;;;;;6160901;23;20008;-87
2022/09/07 15:48:59;;;;;;;24.02;8.95;;;23.90;99.70;;;;;;6164198;23;20017;-89
2022/09/07 16:34:01;;;;;;;5.35;2.00;;;23.50;99.70;;;;;;6128004;23;20030;-88
2022/09/07 16:36:32;;;;;;;6.45;2.10;;;23.50;99.90;;;;;;6107838;23;20021;-87
2022/09/07 16:39:12;;;;;;;;;;;;;;;;;;;;;
2022/09/07 16:41:38;;;;;;;5.90;2.67;;;23.50;99.90;;;;;;6168025;23;20032;-89
2022/09/07 18:10:51;;;;;;;7.00;4.38;;;21.20;99.90;;;;;;6180212;23;20096;-87
2022/09/07 18:13:17;;;;;;;9.25;5.97;;;21.10;99.90;;;;;;6172429;23;20019;-87
2022/09/07 18:15:45;;;;;;;9.60;6.85;;;21.00;99.90;;;;;;6145066;23;20017;-87
2022/09/07 18:18:15;;;;;;;8.45;7.00;;;20.90;99.90;;;;;;6143568;23;20027;-86
2022/09/07 18:20:42;;;;;;;7.88;7.07;;;20.80;99.90;;;;;;6143383;23;20021;-86
2022/09/07 18:23:09;;;;;;;9.75;6.93;;;20.70;99.90;;;;;;6162701;23;20013;-87
2022/09/07 18:25:35;;;;;;;8.88;5.20;;;20.80;99.90;;;;;;6137703;23;20013;-87
2022/09/07 18:28:02;;;;;;;6.43;3.97;;;20.70;99.90;;;;;;6137661;23;20013;-86
2022/09/07 18:30:27;;;;;;;6.28;3.58;;;20.60;99.90;;;;;;6136464;23;20419;-86
2022/09/07 18:32:58;;;;;;;5.95;3.90;;;20.60;99.90;;;;;;6135441;23;20095;-89
2022/09/07 19:45:11;;;;;;;9.10;6.18;;;19.20;99.90;;;;;;6169564;23;20094;-88
2022/09/07 19:47:37;;;;;;;11.45;8.15;;;19.20;99.90;;;;;;6161247;23;20009;-86
2022/09/07 19:50:05;;;;;;;9.07;7.53;;;19.10;99.90;;;;;;6180723;23;20024;-86
2022/09/07 19:52:34;;;;;;;10.07;8.32;;;19.10;99.90;;;;;;6188269;23;20408;-88
2022/09/07 19:55:01;;;;;;;14.30;8.88;;;19.10;99.90;;;;;;6161833;23;20013;-86
2022/09/07 19:57:27;;;;;;;12.68;9.05;;;19.00;99.90;;;;;;6135329;23;20047;-87
2022/09/07 19:59:55;;;;;;;10.75;9.25;;;19.00;99.90;;;;;;6159461;23;20423;-87
2022/09/07 20:02:21;;;;;;;11.45;10.27;;;19.00;99.90;;;;;;6135089;23;20048;-87
2022/09/07 21:05:38;;;;;;;17.88;16.08;;;18.70;99.90;;;;;;6178335;23;20087;-89
2022/09/07 21:08:04;;;;;;;18.75;16.95;;;18.60;99.90;;;;;;6187609;23;20025;-88
2022/09/07 21:10:30;;;;;;;19.13;17.00;;;18.60;99.90;;;;;;6185364;23;20390;-89
2022/09/07 21:12:56;;;;;;;19.48;17.38;;;18.60;99.90;;;;;;6109451;23;20017;-90
2022/09/07 21:15:21;;;;;;;18.88;17.08;;;18.50;99.90;;;;;;6132829;23;20009;-89
2022/09/07 21:17:47;;;;;;;19.17;17.17;;;18.50;99.90;;;;;;6134416;23;20071;-90
2022/09/07 21:20:13;;;;;;;20.02;17.92;;;18.40;99.90;;;;;;6159565;23;20108;-88
2022/09/07 21:22:39;;;;;;;19.42;17.42;;;18.40;99.90;;;;;;6161080;23;20143;-90
2022/09/07 21:25:05;;;;;;;20.48;18.35;;;18.50;99.90;;;;;;6161012;23;20451;-90
2022/09/07 21:27:36;;;;;;;20.98;18.73;;;18.40;99.90;;;;;;6134505;23;20021;-90
2022/09/07 21:30:04;;;;;;;19.80;17.67;;;18.40;99.90;;;;;;6162184;23;20478;-90
2022/09/07 21:32:30;;;;;;;19.92;17.83;;;18.30;99.90;;;;;;6163092;23;20083;-91
2022/09/07 22:14:46;;;;;;;24.98;22.38;;;17.80;99.90;;;;;;6143999;23;20021;-85
2022/09/07 22:17:13;;;;;;;26.15;23.48;;;17.70;99.90;;;;;;6160001;23;20021;-86
2022/09/07 22:19:40;;;;;;;26.48;23.65;;;17.70;99.90;;;;;;6160272;23;20063;-86
2022/09/07 22:22:05;;;;;;;23.42;20.92;;;17.70;99.90;;;;;;6159464;23;20065;-87
2022/09/07 22:24:31;;;;;;;26.52;22.90;;;17.70;99.90;;;;;;6133485;23;20040;-86
2022/09/07 22:26:57;;;;;;;26.45;23.60;;;17.60;99.90;;;;;;6133913;23;20009;-86
2022/09/07 22:29:23;;;;;;;26.98;22.65;;;17.60;99.90;;;;;;6132624;23;20084;-86
2022/09/07 22:31:49;;;;;;;24.88;22.45;;;17.70;99.90;;;;;;6158180;23;20078;-86
2022/09/07 22:49:46;;;;;;;24.52;22.02;;;17.60;99.90;;;;;;6162441;23;20123;-83
2022/09/07 22:52:12;;;;;;;26.00;23.30;;;17.60;99.90;;;;;;6153148;23;20009;-86
2022/09/07 22:54:38;;;;;;;25.98;23.20;;;17.60;99.90;;;;;;6128240;23;20016;-85
2022/09/07 22:57:03;;;;;;;26.20;23.50;;;17.60;99.90;;;;;;6151546;23;20028;-85
2022/09/07 22:59:29;;;;;;;24.52;22.00;;;17.60;99.90;;;;;;6150919;23;20013;-83
2022/09/07 23:01:55;;;;;;;25.63;22.85;;;17.60;99.90;;;;;;6149507;23;20004;-84
